• Join FlightAware (Why Join?)
  • Login
  • US Flag 
12:27AM EST


 

Airport Tracker/Info


-or-


 

Live Flight TrackerFlight Track Log ✈ QFA791 ✈ 30-Sep-2013 ✈ YBAS / ASP - YSSY / SYD

Flight Track Log - Related Links

Times and Time Zones

All times are in EDT time to prevent confusion due to time zone crossing. See the QFA791 flight status page for this flight to view local times or setup timezone preferences in your user account.

Time Position Orientation Groundspeed Altitude Reporting Facility
EDT Latitude Longitude Course Direction KTS MPH feet Rate Location/Type
11:55PM -23.8090 133.9090 180° South 96 110  Level FlightAware
11:55PM -23.8030 133.8960 297° West 175 201 4,500 Level FlightAware
11:56PM -23.8744 133.9877 309° West 37,000 8,820 Climbing Aus ATC (Calculated)
11:56PM -23.7940 133.8800 302° West 163 188 3,100 -56,940 Descending FlightAware
11:56PM -23.7870 133.8660 299° West 176 203 3,800 2,220 Climbing FlightAware
11:56PM -23.7850 133.8580 285° West 186 214 4,200 2,640 Climbing FlightAware
11:57PM -23.9385 134.0719 304° West 37,000 2,520 Climbing Aus ATC (Calculated)
11:57PM -23.7900 133.8320 285° West 197 227 5,400 -85,140 Descending FlightAware
11:57PM -23.9385 134.0719 302° West 37,000 2,400 Climbing Aus ATC (Calculated)
11:57PM -23.7960 133.8240 231° Southwest 199 229 5,800 -143,100 Descending FlightAware
11:57PM -23.8000 133.8210 214° Southwest 200 230 6,000 2,460 Climbing FlightAware
11:57PM -23.8070 133.8180 201° Southwest 204 235 6,300 2,580 Climbing FlightAware
11:57PM -23.8130 133.8160 201° Southwest 205 236 6,700 2,760 Climbing FlightAware
11:57PM -23.8210 133.8160 180° South 212 244 7,000 1,140 Climbing FlightAware
11:58PM -23.8520 133.8220 170° South 257 296 7,400 960 Climbing FlightAware
11:58PM -23.8600 133.8280 146° Southeast 268 308 7,600 1,560 Climbing FlightAware
11:58PM -23.8710 133.8400 135° Southeast 280 322 7,900 1,500 Climbing FlightAware
11:58PM -23.8760 133.8480 124° Southeast 290 334 8,100 1,080 Climbing FlightAware
11:58PM -23.8800 133.8600 110° East 300 345 8,200 2,220 Climbing FlightAware
11:58PM -24.0624 134.2354 299° West 37,000 2,700 Climbing Aus ATC (Calculated)
11:59PM -23.8850 133.8910 110° East 304 350 9,100 -30,960 Descending FlightAware
11:59PM -23.8930 133.9410 100° East 314 361 10,700 2,220 Climbing FlightAware
12:00AM -23.9050 134.0030 102° East 352 405 11,700 2,340 Climbing FlightAware
12:00AM -24.2328 134.4609 309° West 37,000 3,300 Climbing Aus ATC (Calculated)
12:00AM -23.9230 134.0470 102° East 353 406 13,200 -26,400 Descending FlightAware
12:01AM -23.9590 134.0970 128° Southeast 356 410 15,000 2,580 Climbing FlightAware
12:02AM -24.0000 134.1510 130° Southeast 373 429 16,400 1,860 Climbing FlightAware
12:02AM -24.0350 134.1980 129° Southeast 395 455 17,200 1,320 Climbing FlightAware
12:03AM -24.0770 134.2540 129° Southeast 421 484 17,900 1,560 Climbing FlightAware
12:03AM -24.4431 134.7406 309° West 37,000 1,920 Climbing Aus ATC (Calculated)
12:03AM -24.1250 134.3170 129° Southeast 431 496 19,100 -13,920 Descending FlightAware
12:04AM -24.1690 134.3750 130° Southeast 436 502 20,300 1,980 Climbing FlightAware
12:04AM -24.5350 134.8633 309° West 37,000 1,920 Climbing Aus ATC (Calculated)
12:05AM -24.2120 134.4320 130° Southeast 441 507 21,400 -15,960 Descending FlightAware
12:05AM -24.2590 134.4940 130° Southeast 448 516 22,400 1,500 Climbing FlightAware
12:05AM -24.6210 134.9784 309° West 37,000 1,320 Climbing Aus ATC (Calculated)
12:06AM -24.6612 135.0324 309° West 37,000 -39,480 Level Aus ATC (Calculated)
12:06AM -24.3080 134.5580 130° Southeast 460 529 23,200 -20,760 Descending FlightAware
12:06AM -24.3560 134.6230 130° Southeast 464 534 24,200 1,740 Climbing FlightAware
12:07AM -24.3990 134.6800 130° Southeast 467 537 25,200 1,620 Climbing FlightAware
12:07AM -24.4520 134.7510 129° Southeast 473 544 26,100 1,440 Climbing FlightAware
12:08AM -24.5020 134.8180 129° Southeast 476 548 27,000 1,440 Climbing FlightAware
12:08AM -24.8561 135.2947 309° West 37,000 1,440 Climbing Aus ATC (Calculated)
12:09AM -24.5430 134.8720 130° Southeast 481 554 27,700 -9,000 Descending FlightAware
12:09AM -24.8889 135.3390 309° West 37,000 1,200 Climbing Aus ATC (Calculated)
12:09AM -24.5970 134.9450 130° Southeast 487 560 28,500 -8,100 Descending FlightAware
12:09AM -24.9207 135.3820 309° West 37,000 1,140 Climbing Aus ATC (Calculated)
12:10AM -24.6510 135.0170 130° Southeast 494 568 29,200 -6,600 Descending FlightAware
12:10AM -24.7030 135.0870 129° Southeast 494 568 30,000 1,380 Climbing FlightAware
12:11AM -24.7500 135.1500 129° Southeast 494 568 30,800 1,500 Climbing FlightAware
12:11AM -24.7950 135.2120 129° Southeast 494 568 31,600 1,320 Climbing FlightAware
12:12AM -25.1053 135.6322 309° West 37,000 1,260 Climbing Aus ATC (Calculated)
12:12AM -24.8510 135.2870 129° Southeast 493 567 32,400 -4,260 Descending FlightAware
12:13AM -24.9000 135.3530 129° Southeast 494 568 33,100 1,080 Climbing FlightAware
12:13AM -24.9520 135.4240 129° Southeast 496 571 33,700 1,080 Climbing FlightAware
12:14AM -25.0030 135.4930 129° Southeast 497 572 34,400 1,080 Climbing FlightAware
12:14AM -25.0530 135.5600 129° Southeast 496 571 35,000 1,200 Climbing FlightAware
12:15AM -25.3047 135.9040 309° West 37,000 1,320 Climbing Aus ATC (Calculated)
12:15AM -25.1040 135.6300 129° Southeast 490 564 35,800 -660 Descending FlightAware
12:16AM -25.1480 135.6890 129° Southeast 483 556 36,500 1,020 Climbing FlightAware
12:16AM -25.2020 135.7630 129° Southeast 479 551 37,000 360 Climbing FlightAware
12:17AM -25.2530 135.8310 130° Southeast 480 552 37,000  Level FlightAware
12:17AM -25.3000 135.8960 129° Southeast 480 552 37,000  Level FlightAware
12:18AM -25.3470 135.9610 129° Southeast 480 552 37,000  Level FlightAware
12:18AM -25.3980 136.0310 129° Southeast 480 552 37,000  Level FlightAware
12:19AM -25.4470 136.0990 129° Southeast 479 551 37,000  Level FlightAware
12:20AM -25.4930 136.1620 129° Southeast 479 551 37,000  Level FlightAware
12:20AM -25.6773 136.4162 309° West 37,000  Level Aus ATC (Calculated)
12:20AM -25.5450 136.2330 129° Southeast 480 552 37,000  Level FlightAware
12:20AM -25.7330 136.4933 309° West 37,000  Level Aus ATC (Calculated)
12:21AM -25.5950 136.3020 129° Southeast 481 554 37,000  Level FlightAware
12:21AM -25.6390 136.3620 129° Southeast 481 554 37,000  Level FlightAware
12:22AM -25.6890 136.4310 129° Southeast 481 554 37,000  Level FlightAware
12:23AM -25.7350 136.4960 128° Southeast 481 554 37,000  Level FlightAware
12:23AM -25.7830 136.5620 129° Southeast 481 554 37,000  Level FlightAware
12:24AM -25.8360 136.6360 129° Southeast 481 554 37,000  Level FlightAware
12:24AM -25.8820 136.7000 129° Southeast 480 552 37,000  Level FlightAware
12:25AM -26.0604 136.9490 309° West 37,000  Level Aus ATC (Calculated)
12:25AM -25.9360 136.7760 129° Southeast 480 552 37,000  Level FlightAware
12:26AM -25.9890 136.8500 129° Southeast 480 552 37,000  Level FlightAware
12:26AM -26.0390 136.9190 129° Southeast 481 554 37,000  Level FlightAware
12:27AM -26.0810 136.9770 129° Southeast 481 554 37,000  Level FlightAware
12:27AM -26.1240 137.0390 128° Southeast 481 554 37,000  Level FlightAware
12:28AM -26.1660 137.0990 128° Southeast 481 554 37,000  Level FlightAware
12:29AM -26.2080 137.1580 128° Southeast 481 554 37,000  Level FlightAware
12:29AM -26.2510 137.2200 128° Southeast 481 554 37,000  Level FlightAware
12:29AM -26.5076 137.5795 309° West 37,000  Level Aus ATC (Calculated)
12:30AM -26.2930 137.2800 128° Southeast 481 554 37,000  Level FlightAware
12:30AM -26.3340 137.3400 127° Southeast 481 554 37,000  Level FlightAware
12:31AM -26.3780 137.4010 129° Southeast 481 554 37,000  Level FlightAware
12:32AM -26.4190 137.4610 127° Southeast 481 554 37,000  Level FlightAware
12:32AM -26.4590 137.5180 128° Southeast 481 554 37,000  Level FlightAware
12:33AM -26.5020 137.5790 128° Southeast 481 554 37,000  Level FlightAware
12:33AM -26.5440 137.6390 128° Southeast 481 554 37,000  Level FlightAware
12:34AM -26.5860 137.6990 128° Southeast 481 554 37,000  Level FlightAware
12:34AM -26.8887 138.1237 309° West 37,000  Level Aus ATC (Calculated)
12:34AM -26.8887 138.1237 309° West 37,000  Level Aus ATC (Calculated)
12:35AM -26.9203 138.1693 309° West 37,000  Level Aus ATC (Calculated)
12:35AM -26.6280 137.7590 128° Southeast 481 554 37,000  Level FlightAware
12:35AM -26.6700 137.8190 128° Southeast 481 554 37,000  Level FlightAware
12:35AM -27.0156 138.3065 308° West 37,000  Level Aus ATC (Calculated)
12:36AM -26.7120 137.8790 128° Southeast 481 554 37,000  Level FlightAware
12:36AM -26.7550 137.9410 128° Southeast 481 554 37,000  Level FlightAware
12:37AM -27.1107 138.4440 308° West 37,000  Level Aus ATC (Calculated)
12:37AM -26.7980 138.0030 128° Southeast 481 554 37,000  Level FlightAware
12:37AM -27.1582 138.5129 308° West 37,000  Level Aus ATC (Calculated)
12:38AM -26.8400 138.0630 128° Southeast 481 554 37,000  Level FlightAware
12:38AM -27.2057 138.5818 308° West 37,000  Level Aus ATC (Calculated)
12:38AM -26.8820 138.1230 128° Southeast 481 554 37,000  Level FlightAware
12:39AM -26.9240 138.1830 128° Southeast 481 554 37,000  Level FlightAware
12:39AM -26.9660 138.2440 128° Southeast 481 554 37,000  Level FlightAware
12:40AM -27.0070 138.3040 127° Southeast 481 554 37,000  Level FlightAware
12:41AM -27.0490 138.3640 128° Southeast 481 554 37,000  Level FlightAware
12:41AM -27.0910 138.4240 128° Southeast 481 554 37,000  Level FlightAware
12:42AM -27.5371 139.0657 128° Southeast 37,000  Level Aus ATC (Calculated)
12:44AM -27.6194 139.1867 128° Southeast  Level FlightAware Approximate
12:45AM -27.6818 139.2787 127° Southeast  Level FlightAware Approximate
12:46AM -27.7441 139.3708 127° Southeast  Level FlightAware Approximate
12:47AM -27.8064 139.4630 127° Southeast  Level FlightAware Approximate
12:47AM -27.9138 139.6224 127° Southeast 37,000  Level Aus ATC (Calculated)
12:49AM -27.9966 139.7457 127° Southeast  Level FlightAware Approximate
12:50AM -28.0586 139.8383 127° Southeast  Level FlightAware Approximate
12:51AM -28.1206 139.9310 127° Southeast  Level FlightAware Approximate
12:52AM -28.1825 140.0239 127° Southeast  Level FlightAware Approximate
12:52AM -28.3348 140.2531 127° Southeast 37,000  Level Aus ATC (Calculated)
12:54AM -28.4181 140.3790 127° Southeast  Level FlightAware Approximate
12:55AM -28.4797 140.4724 127° Southeast  Level FlightAware Approximate
12:55AM -28.3980 140.3490 127° Southeast 487 560 37,000  Level FlightAware
12:55AM -28.5210 140.5351 307° West 37,000  Level Aus ATC (Calculated)
12:55AM -28.4470 140.4220 127° Southeast 489 563 37,000  Level FlightAware
12:56AM -28.5190 140.5320 127° Southeast 489 563 37,000  Level FlightAware
12:57AM -28.5740 140.6160 127° Southeast 489 563 37,000  Level FlightAware
12:57AM -28.7065 140.8180 307° West 37,000  Level Aus ATC (Calculated)
12:57AM -28.6210 140.6880 127° Southeast 487 560 37,000  Level FlightAware
12:58AM -28.6850 140.7860 127° Southeast 486 559 37,000  Level FlightAware
12:59AM -28.7300 140.8560 126° Southeast 484 557 37,000  Level FlightAware
12:59AM -28.7800 140.9290 128° Southeast 482 555 37,000  Level FlightAware
01:00AM -28.8300 141.0080 126° Southeast 482 555 37,000  Level FlightAware
01:01AM -28.8700 141.0710 126° Southeast 482 555 37,000  Level FlightAware
01:01AM -28.9270 141.1560 127° Southeast 477 549 37,000  Level FlightAware
01:02AM -28.9740 141.2300 126° Southeast 475 547 37,000  Level FlightAware
01:02AM -29.1219 141.4582 307° West 37,000  Level Aus ATC (Calculated)
01:02AM -29.0130 141.2920 126° Southeast 475 547 37,000  Level FlightAware
01:03AM -29.0530 141.3550 126° Southeast 475 547 37,000  Level FlightAware
01:04AM -29.1200 141.4550 128° Southeast 472 543 37,000  Level FlightAware
01:04AM -29.1670 141.5290 126° Southeast 473 544 37,000  Level FlightAware
01:05AM -29.2070 141.5900 127° Southeast 477 549 37,000  Level FlightAware
01:05AM -29.2460 141.6520 126° Southeast 478 550 37,000  Level FlightAware
01:06AM -29.2860 141.7150 126° Southeast 478 550 37,000  Level FlightAware
01:07AM -29.3260 141.7780 126° Southeast 478 550 37,000  Level FlightAware
01:07AM -29.4885 142.0316 306° West 37,000  Level Aus ATC (Calculated)
01:07AM -29.3670 141.8420 126° Southeast 478 550 37,000  Level FlightAware
01:08AM -29.4080 141.9070 126° Southeast 478 550 37,000  Level FlightAware
01:08AM -29.4850 142.0250 127° Southeast 481 554 37,000  Level FlightAware
01:09AM -29.5280 142.0930 126° Southeast 481 554 37,000  Level FlightAware
01:09AM -29.5690 142.1590 126° Southeast 482 555 37,000  Level FlightAware
01:10AM -29.6340 142.2610 126° Southeast 481 554 37,000  Level FlightAware
01:11AM -29.6770 142.3310 125° Southeast 481 554 37,000  Level FlightAware
01:11AM -29.7160 142.3950 125° Southeast 481 554 37,000  Level FlightAware
01:12AM -29.8526 142.6091 307° West 37,000  Level Aus ATC (Calculated)
01:12AM -29.7550 142.4590 125° Southeast 481 554 37,000  Level FlightAware
01:12AM -29.8526 142.6091 308° West 37,000  Level Aus ATC (Calculated)
01:13AM -29.7950 142.5250 125° Southeast 481 554 37,000  Level FlightAware
01:13AM -29.8340 142.5900 125° Southeast 481 554 37,000  Level FlightAware
01:14AM -30.0011 142.8471 307° West 37,000  Level Aus ATC (Calculated)
01:14AM -29.8730 142.6540 125° Southeast 481 554 37,000  Level FlightAware
01:15AM -29.9130 142.7200 125° Southeast 481 554 37,000  Level FlightAware
01:15AM -30.1041 143.0129 308° West 37,000  Level Aus ATC (Calculated)
01:15AM -29.9520 142.7850 125° Southeast 481 554 37,000  Level FlightAware
01:16AM -30.1726 143.1237 307° West 37,000  Level Aus ATC (Calculated)
01:16AM -29.9910 142.8490 125° Southeast 481 554 37,000  Level FlightAware
01:16AM -30.0300 142.9130 125° Southeast 481 554 37,000  Level FlightAware
01:17AM -30.0690 142.9780 125° Southeast 481 554 37,000  Level FlightAware
01:17AM -30.3001 143.3306 308° West 37,000  Level Aus ATC (Calculated)
01:18AM -30.1080 143.0420 125° Southeast 481 554 37,000  Level FlightAware
01:18AM -30.1470 143.1070 125° Southeast 481 554 37,000  Level FlightAware
01:19AM -30.1860 143.1710 125° Southeast 481 554 37,000  Level FlightAware
01:19AM -30.2250 143.2360 125° Southeast 481 554 37,000  Level FlightAware
01:20AM -30.2650 143.3000 126° Southeast 481 554 37,000 60 Level FlightAware
01:22AM -30.6806 143.9546 125° Southeast 37,000 120 Level Aus ATC (Calculated)
01:23AM -30.4307 143.5668 126° Southeast  Level FlightAware Approximate
01:24AM -30.7632 144.0913 125° Southeast  Level FlightAware Approximate
01:25AM -30.8258 144.1953 125° Southeast  Level FlightAware Approximate
01:26AM -30.8883 144.2994 125° Southeast  Level FlightAware Approximate
01:26AM -30.9326 144.3733 125° Southeast 37,000  Level Aus ATC (Calculated)
01:27AM -31.0581 144.5834 125° Southeast 37,000 180 Level Aus ATC (Calculated)
01:28AM -31.0998 144.6536 125° Southeast 37,000 180 Level Aus ATC (Calculated)
01:29AM -31.1832 144.7941 125° Southeast 37,000 180 Level Aus ATC (Calculated)
01:30AM -31.1972 144.8177 125° Southeast  Level FlightAware Approximate
01:31AM -31.2907 144.9761 125° Southeast  Level FlightAware Approximate
01:32AM -31.3526 145.0812 125° Southeast  Level FlightAware Approximate
01:32AM -31.3910 145.1465 125° Southeast 37,000  Level Aus ATC (Calculated)
01:34AM -31.5042 145.3398 125° Southeast  Level FlightAware Approximate
01:35AM -31.5658 145.4455 124° Southeast  Level FlightAware Approximate
01:35AM -31.6190 145.5366 304° West 37,000  Level Aus ATC (Calculated)
01:36AM -31.5042 145.3398 304° West  Level FlightAware Approximate
01:36AM -31.7226 145.7149 304° West 37,000  Level Aus ATC (Calculated)
01:36AM -31.6070 145.5160 304° West 470 541 39,000 2,460 Climbing FlightAware
01:37AM -31.6440 145.5810 124° Southeast 469 540 39,000  Level FlightAware
01:37AM -31.6880 145.6560 125° Southeast 468 539 39,000 -120 Level FlightAware
01:38AM -31.7315 145.7312 125° Southeast 471 542 38,900  Descending Aus ATC (RADAR)
01:38AM -31.7310 145.7300 125° Southeast 468 539 39,000 120 Climbing FlightAware
01:39AM -31.7740 145.8050 124° Southeast 468 539 39,000  Level FlightAware
01:39AM -31.8170 145.8800 124° Southeast 468 539 39,000  Level FlightAware
01:40AM -31.8590 145.9530 124° Southeast 468 539 39,000  Level FlightAware
01:40AM -31.9020 146.0290 124° Southeast 469 540 39,000  Level FlightAware
01:41AM -31.9440 146.1010 125° Southeast 469 540 39,000  Level FlightAware
01:42AM -31.9880 146.1780 124° Southeast 470 541 39,000  Level FlightAware
01:42AM -32.0300 146.2530 123° Southeast 472 543 39,000  Level FlightAware
01:43AM -32.0740 146.3290 124° Southeast 472 543 39,000  Level FlightAware
01:43AM -32.1170 146.4060 123° Southeast 472 543 39,000  Level FlightAware
01:44AM -32.1610 146.4820 124° Southeast 472 543 39,000  Level FlightAware
01:45AM -32.2030 146.5570 124° Southeast 473 544 39,000  Level FlightAware
01:45AM -32.2460 146.6330 124° Southeast 472 543 39,000 -120 Level FlightAware
01:46AM -32.2869 146.7053 124° Southeast 471 542 38,900  Descending Aus ATC (RADAR)
01:46AM -32.2880 146.7090 124° Southeast 471 542 39,000 180 Climbing FlightAware
01:46AM -32.3250 146.7740 124° Southeast 476 548 39,000 -240 Level FlightAware
01:46AM -32.3293 146.7808 124° Southeast 470 541 38,900  Descending Aus ATC (RADAR)
01:47AM -32.3730 146.8600 123° Southeast 471 542 39,000 60 Climbing FlightAware
01:47AM -32.4170 146.9380 124° Southeast 477 549 39,000  Level FlightAware
01:48AM -32.4580 147.0120 123° Southeast 472 543 39,000  Level FlightAware
01:49AM -32.5010 147.0890 124° Southeast 476 548 39,000  Level FlightAware
01:49AM -32.5440 147.1660 124° Southeast 474 545 39,000  Level FlightAware
01:50AM -32.5810 147.2320 124° Southeast 474 545 39,000 -420 Level FlightAware
01:50AM -32.5835 147.2363 124° Southeast 468 539 38,800  Descending Aus ATC (RADAR)
01:50AM -32.6240 147.3090 124° Southeast 475 547 39,000 120 Climbing FlightAware
01:51AM -32.6720 147.3960 123° Southeast 476 548 39,000  Level FlightAware
01:52AM -32.7150 147.4740 123° Southeast 476 548 39,000  Level FlightAware
01:52AM -32.7620 147.5600 123° Southeast 477 549 39,000  Level FlightAware
01:53AM -32.8050 147.6370 124° Southeast 477 549 39,000  Level FlightAware
01:53AM -32.8460 147.7130 124° Southeast 478 550 39,000 -180 Level FlightAware
01:53AM -32.8482 147.7168 124° Southeast 472 543 38,900  Descending Aus ATC (RADAR)
01:54AM -32.8890 147.7920 123° Southeast 479 551 39,000 60 Climbing FlightAware
01:55AM -32.9300 147.8680 123° Southeast 479 551 39,000  Level FlightAware
01:55AM -32.9730 147.9460 123° Southeast 479 551 39,000 -120 Level FlightAware
01:56AM -33.0168 148.0260 123° Southeast 472 543 38,900  Descending Aus ATC (RADAR)
01:56AM -33.0160 148.0250 123° Southeast 479 551 39,000 180 Climbing FlightAware
01:56AM -33.0520 148.0920 123° Southeast 479 551 39,000 -180 Level FlightAware
01:56AM -33.0589 148.1034 123° Southeast 474 545 38,900  Descending Aus ATC (RADAR)
01:57AM -33.1000 148.1800 123° Southeast 479 551 39,000 60 Climbing FlightAware
01:57AM -33.1350 148.2320 129° Southeast 471 542 39,000  Level FlightAware
01:58AM -33.1840 148.2810 140° Southeast 454 522 39,000  Level FlightAware
01:58AM -33.2450 148.3320 145° Southeast 453 521 39,000  Level FlightAware
01:59AM -33.3050 148.3820 145° Southeast 453 521 39,000  Level FlightAware
02:00AM -33.3670 148.4340 145° Southeast 453 521 39,000  Level FlightAware
02:00AM -33.4270 148.4840 145° Southeast 452 520 39,000  Level FlightAware
02:01AM -33.4880 148.5350 145° Southeast 451 519 39,000  Level FlightAware
02:01AM -33.5500 148.5860 146° Southeast 451 519 39,000  Level FlightAware
02:02AM -33.6130 148.6390 145° Southeast 452 520 39,000  Level FlightAware
02:02AM -33.6730 148.6900 145° Southeast 453 521 39,000  Level FlightAware
02:03AM -33.7330 148.7400 145° Southeast 454 522 39,000  Level FlightAware
02:04AM -33.7950 148.7930 145° Southeast 457 526 39,000  Level FlightAware
02:04AM -33.7824 148.7819 324° Northwest 464 534 39,000 -120 Level FlightAware ADS-B
02:05AM -33.8889 148.8723 324° Northwest 462 532 38,900  Descending Aus ATC (RADAR)
02:05AM -33.9210 148.8990 324° Northwest 459 528 39,000 60 Climbing FlightAware
02:05AM -33.9820 148.9510 145° Southeast 460 529 39,000  Level FlightAware
02:06AM -34.0134 148.9779 145° Southeast 468 539 39,000 -360 Level FlightAware ADS-B
02:06AM -34.0837 149.0377 145° Southeast 467 537 38,700 -1,200 Descending FlightAware ADS-B
02:07AM -34.1425 149.0873 145° Southeast 459 528 37,600 -2,160 Descending FlightAware ADS-B
02:07AM -34.1952 149.1322 145° Southeast 457 526 36,400 -2,520 Descending FlightAware ADS-B
02:08AM -34.2448 149.1748 145° Southeast 460 529 35,100 -2,880 Descending FlightAware ADS-B
02:08AM -34.2995 149.2219 145° Southeast 453 521 33,500 -2,820 Descending Aus ATC (RADAR)
02:09AM -34.3118 149.2326 145° Southeast 466 536 33,200 -2,340 Descending FlightAware ADS-B
02:09AM -34.3824 149.2929 145° Southeast 462 532 31,600 -2,400 Descending FlightAware ADS-B
02:10AM -34.4175 149.3364 134° Southeast 470 541 30,800 -2,280 Descending FlightAware ADS-B
02:10AM -34.4354 149.3825 115° Southeast 474 545 30,100 -2,220 Descending FlightAware ADS-B
02:11AM -34.4487 149.4807 99° East 468 539 28,700 -2,100 Descending FlightAware ADS-B
02:11AM -34.4581 149.5594 98° East 461 531 27,700 -2,100 Descending FlightAware ADS-B
02:12AM -34.4682 149.6462 98° East 454 522 26,400 -2,100 Descending FlightAware ADS-B
02:12AM -34.4778 149.7268 98° East 448 516 25,400 -2,040 Descending FlightAware ADS-B
02:13AM -34.4862 149.7969 98° East 439 505 24,300 -2,040 Descending FlightAware ADS-B
02:13AM -34.4955 149.8782 98° East 432 497 23,300 -2,040 Descending FlightAware ADS-B
02:13AM -34.4969 149.9001 94° East 431 496 23,000 -2,100 Descending FlightAware ADS-B (YRAY)
02:14AM -34.4951 149.9290 86° East 430 495 22,600 -2,040 Descending FlightAware ADS-B (YRAY)
02:14AM -34.4893 149.9572 76° East 430 495 22,200 -2,040 Descending FlightAware ADS-B (YRAY)
02:14AM -34.4828 149.9764 68° East 422 486 21,900 -2,040 Descending FlightAware ADS-B (YRAY)
02:14AM -34.4559 150.0377 62° Northeast 415 478 20,900 -2,100 Descending FlightAware ADS-B
02:15AM -34.4225 150.1127 62° Northeast 408 470 19,500 -2,040 Descending FlightAware ADS-B
02:16AM -34.3917 150.1818 62° Northeast 402 463 18,500 -1,980 Descending FlightAware ADS-B (YRAY)
02:16AM -34.3651 150.2411 61° Northeast 391 450 17,500 -1,980 Descending FlightAware ADS-B (YRAY)
02:17AM -34.3393 150.2990 62° Northeast 387 445 16,500 -1,920 Descending FlightAware ADS-B (YRAY)
02:17AM -34.3140 150.3556 62° Northeast 378 435 15,600 -1,800 Descending FlightAware ADS-B (YRAY)
02:18AM -34.2896 150.4104 62° Northeast 365 420 14,700 -1,800 Descending FlightAware ADS-B (YRAY)
02:18AM -34.2816 150.4283 62° Northeast 362 417 14,400 -1,800 Descending FlightAware ADS-B (YRAY)
02:18AM -34.2737 150.4459 62° Northeast 361 415 14,100 -1,800 Descending FlightAware ADS-B (YRAY)
02:18AM -34.2658 150.4637 62° Northeast 358 412 13,800 -2,100 Descending FlightAware ADS-B (YRAY)
02:18AM -34.2578 150.4818 62° Northeast 356 410 13,400 -2,100 Descending FlightAware ADS-B (YRAY)
02:18AM -34.2499 150.4996 62° Northeast 354 407 13,100 -1,800 Descending FlightAware ADS-B (YRAY)
02:19AM -34.2420 150.5170 61° Northeast 352 405 12,800 -1,800 Descending FlightAware ADS-B (YRAY)
02:19AM -34.2342 150.5342 61° Northeast 349 402 12,500 -1,740 Descending FlightAware ADS-B (YRAY)
02:19AM -34.2103 150.5876 62° Northeast 344 396 11,600 -1,680 Descending FlightAware ADS-B
02:20AM -34.1807 150.6540 62° Northeast 331 381 10,500 -1,080 Descending FlightAware ADS-B
02:21AM -34.1577 150.7051 62° Northeast 305 351 10,300 -540 Descending FlightAware ADS-B
02:21AM -34.1344 150.7565 61° Northeast 279 321 9,900 -960 Descending FlightAware ADS-B (YRAY)
02:21AM -34.1283 150.7700 61° Northeast 279 321 9,600 -2,040 Descending FlightAware ADS-B (YRAY)
02:21AM -34.1253 150.7767 61° Northeast 282 325 9,400 -1,200 Descending FlightAware ADS-B
02:22AM -34.1158 150.7977 61° Northeast 281 323 9,200 -720 Descending FlightAware ADS-B (YRAY)
02:22AM -34.1071 150.8170 62° Northeast 276 318 9,000 -780 Descending FlightAware ADS-B
02:22AM -34.0916 150.8517 62° Northeast 285 328 8,700 -780 Descending FlightAware ADS-B
02:22AM -34.0849 150.8666 62° Northeast 285 328 8,600 -900 Descending FlightAware ADS-B (YRAY)
02:23AM -34.0786 150.8808 62° Northeast 288 331 8,400 -1,020 Descending FlightAware ADS-B (YRAY)
02:23AM -34.0657 150.9093 61° Northeast 286 329 8,100 -960 Descending FlightAware ADS-B (YRAY)
02:23AM -34.0533 150.9370 62° Northeast 288 331 7,800 -1,080 Descending FlightAware ADS-B (YRAY)
02:24AM -34.0400 150.9664 61° Northeast 289 333 7,400 -1,080 Descending FlightAware ADS-B (YRAY)
02:24AM -34.0337 150.9865 69° East 289 333 7,200 -960 Descending FlightAware ADS-B
02:24AM -34.0329 150.9963 85° East 288 331 7,100 -600 Descending FlightAware ADS-B (YRAY)
02:24AM -34.0333 151.0030 93° East 289 333 7,100 -600 Level FlightAware ADS-B
02:24AM -34.0352 151.0133 103° East 287 330 7,000 -1,200 Descending FlightAware ADS-B (YRAY)
02:24AM -34.0367 151.0178 111° Southeast 289 333 6,900 -1,200 Descending FlightAware ADS-B
02:24AM -34.0411 151.0271 120° Southeast 285 328 6,800 -1,200 Descending FlightAware ADS-B (YRAY)
02:24AM -34.0445 151.0323 129° Southeast 289 333 6,700 -900 Descending FlightAware ADS-B
02:25AM -34.0593 151.0509 134° Southeast 282 325 6,500 -1,020 Descending FlightAware ADS-B (YRAY)
02:25AM -34.0789 151.0727 137° Southeast 285 328 6,100 -1,560 Descending FlightAware ADS-B
02:25AM -34.0915 151.0802 154° Southeast 286 329 5,700 -2,400 Descending FlightAware ADS-B
02:25AM -34.0989 151.0826 165° South 288 331 5,300 -2,160 Descending FlightAware ADS-B
02:25AM -34.1148 151.0863 169° South 288 331 5,100 -1,800 Descending FlightAware ADS-B
02:25AM -34.1178 151.0871 168° South 291 335 5,000 -1,500 Descending FlightAware ADS-B
02:26AM -34.1400 151.0927 168° South 289 333 4,600 -1,020 Descending FlightAware ADS-B
02:26AM -34.1652 151.0993 168° South 268 308 4,400 -600 Descending FlightAware ADS-B (YRAY)
02:26AM -34.1797 151.1068 157° South 264 304 4,300 -600 Descending FlightAware ADS-B (YRAY)
02:26AM -34.1862 151.1133 141° Southeast 268 308 4,200 -960 Descending FlightAware ADS-B (YRAY)
02:26AM -34.1906 151.1198 129° Southeast 267 307 4,100 -1,200 Descending FlightAware ADS-B
02:27AM -34.1959 151.1333 115° Southeast 263 303 3,900 -1,440 Descending FlightAware ADS-B
02:27AM -34.1974 151.1437 100° East 260 299 3,700 -1,380 Descending FlightAware ADS-B
02:27AM -34.1970 151.1583 88° East 258 297 3,500 -540 Descending FlightAware ADS-B
02:27AM -34.1859 151.1910 68° East 247 284 3,400 -180 Descending FlightAware ADS-B
02:28AM -34.1760 151.1991 34° Northeast 238 274 3,400 -300 Level FlightAware ADS-B
02:28AM -34.1666 151.2024 16° North 230 265 3,300 -360 Descending FlightAware ADS-B
02:28AM -34.1559 151.2048 11° North 224 258 3,300  Level FlightAware ADS-B
02:28AM -34.1485 151.2065 11° North 220 253 3,300 -240 Level FlightAware ADS-B
02:28AM -34.1257 151.2120 11° North 208 239 3,200 -600 Descending FlightAware ADS-B
02:29AM -34.1083 151.2159 11° North 202 232 2,900 -1,320 Descending FlightAware ADS-B
02:29AM -34.0995 151.2160 360° North 196 226 2,600 -1,080 Descending FlightAware ADS-B
02:29AM -34.0824 151.2112 347° North 196 226 2,400 -780 Descending FlightAware ADS-B
02:29AM -34.0780 151.2100 347° North 183 211 2,300 -960 Descending FlightAware ADS-B (YRAY)
02:30AM -34.0607 151.2056 348° North 183 211 2,000 -1,020 Descending FlightAware ADS-B (YRAY)
02:30AM -34.1083 151.2159 170° South 180 207 1,900 -900 Descending FlightAware ADS-B
02:30AM -34.0446 151.2016 349° North 149 171 1,700 -840 Descending FlightAware ADS-B (YRAY)
02:30AM -34.0317 151.1982 348° North 151 174 1,400 -780 Descending FlightAware ADS-B (YRAY)
02:31AM -34.0181 151.1946 348° North 150 173 1,200 -780 Descending FlightAware ADS-B (YRAY)
02:31AM -34.0044 151.1911 348° North 149 171 900 -900 Descending FlightAware ADS-B (YRAY)
02:31AM -33.9904 151.1874 348° North 147 169 600 -1,020 Descending FlightAware ADS-B (YRAY)
02:31AM -33.9880 151.1868 348° North 180 207 500 -600 Descending FlightAware ADS-B
02:32AM -33.9774 151.1840 348° North 146 168 400 -660 Descending FlightAware ADS-B (YRAY)
02:32AM -33.9640 151.1806 348° North 147 169 100 -900 Descending FlightAware ADS-B (YRAY)
02:32AM -33.9518 151.1774 348° North 105 121 -300 Descending FlightAware ADS-B (YRAY)